createdAt,value
2018-04-12T00:02:21.357Z,3.23
2018-04-12T00:04:50.533Z,3.27
2018-04-12T00:07:20.193Z,3.20
2018-04-12T00:09:49.001Z,3.03
2018-04-12T00:12:18.923Z,3.60
2018-04-12T00:14:48.054Z,3.20
2018-04-12T00:17:17.634Z,3.40
2018-04-12T00:19:46.497Z,3.53
2018-04-12T00:22:15.357Z,3.10
2018-04-12T00:24:44.939Z,2.87
2018-04-12T00:27:13.830Z,3.17
2018-04-12T00:29:43.072Z,3.03
2018-04-12T00:32:12.018Z,3.33
2018-04-12T00:34:41.220Z,3.20
2018-04-12T00:37:10.080Z,2.90
2018-04-12T00:39:38.959Z,3.03
2018-04-12T00:42:08.334Z,3.17
2018-04-12T00:44:37.180Z,2.90
2018-04-12T00:47:06.013Z,3.17
2018-04-12T00:49:35.258Z,3.20
2018-04-12T00:52:04.564Z,3.13
2018-04-12T00:54:33.723Z,2.90
2018-04-12T00:57:02.885Z,2.40
2018-04-12T00:59:31.791Z,3.10
2018-04-12T01:02:00.855Z,2.93
2018-04-12T01:04:30.909Z,3.30
2018-04-12T01:06:59.876Z,3.03
2018-04-12T01:09:28.769Z,3.20
2018-04-12T01:11:59.112Z,2.93
2018-04-12T01:14:28.064Z,3.20
2018-04-12T01:16:57.273Z,2.90
2018-04-12T01:19:26.304Z,2.90
2018-04-12T01:21:55.528Z,3.40
2018-04-12T01:24:24.357Z,3.07
2018-04-12T01:26:53.833Z,3.37
2018-04-12T01:29:22.690Z,2.80
2018-04-12T01:31:52.464Z,3.57
2018-04-12T01:34:21.364Z,2.90
2018-04-12T01:36:50.224Z,3.30
2018-04-12T01:39:19.135Z,3.13
2018-04-12T01:41:48.081Z,3.23
2018-04-12T01:44:17.751Z,3.13
2018-04-12T01:46:46.648Z,3.43
2018-04-12T01:49:15.895Z,3.40
2018-04-12T01:51:45.140Z,2.87
2018-04-12T01:54:14.237Z,2.97
2018-04-12T01:56:43.143Z,3.30
2018-04-12T01:59:12.068Z,3.13
2018-04-12T02:01:42.773Z,3.43
2018-04-12T02:04:11.704Z,2.87
2018-04-12T02:06:42.042Z,3.23
2018-04-12T02:09:11.245Z,3.33
2018-04-12T02:11:40.529Z,3.33
2018-04-12T02:14:10.620Z,3.10
2018-04-12T02:16:39.607Z,3.30
2018-04-12T02:19:08.648Z,3.17
2018-04-12T02:21:37.605Z,3.00
2018-04-12T02:24:06.512Z,2.87
2018-04-12T02:26:36.357Z,3.00
2018-04-12T02:29:05.699Z,3.03
2018-04-12T02:31:34.724Z,3.23
2018-04-12T02:34:04.323Z,3.80
2018-04-12T02:36:33.592Z,3.40
2018-04-12T02:39:02.426Z,3.60
2018-04-12T02:41:31.305Z,3.03
2018-04-12T02:44:00.396Z,3.20
2018-04-12T02:46:30.093Z,3.40
2018-04-12T02:48:59.698Z,3.43
2018-04-12T02:51:29.018Z,3.13
2018-04-12T02:53:57.847Z,3.23
2018-04-12T02:56:26.703Z,2.47
2018-04-12T02:58:55.881Z,3.13
2018-04-12T03:01:25.636Z,2.90
2018-04-12T03:03:54.553Z,2.97
2018-04-12T03:06:24.310Z,3.60
2018-04-12T03:08:53.168Z,3.23
2018-04-12T03:11:22.004Z,2.90
2018-04-12T03:13:51.283Z,3.20
2018-04-12T03:16:20.943Z,3.20
2018-04-12T03:18:49.812Z,3.50
2018-04-12T03:21:18.713Z,3.17
2018-04-12T03:23:47.943Z,3.30
2018-04-12T03:26:18.052Z,3.57
2018-04-12T03:28:47.646Z,3.17
2018-04-12T03:31:16.532Z,3.40
2018-04-12T03:33:45.367Z,3.67
2018-04-12T03:36:14.449Z,2.93
2018-04-12T03:38:44.148Z,3.53
2018-04-12T03:41:12.964Z,3.40
2018-04-12T03:43:42.667Z,3.80
2018-04-12T03:46:12.279Z,2.90
2018-04-12T03:48:41.575Z,3.90
2018-04-12T03:51:10.463Z,3.37
2018-04-12T03:53:39.771Z,3.37
2018-04-12T03:56:08.876Z,3.30
2018-04-12T03:58:37.781Z,3.30
2018-04-12T04:01:07.801Z,3.60
2018-04-12T04:03:37.434Z,3.43
2018-04-12T04:06:06.377Z,3.47
2018-04-12T04:08:35.918Z,2.80
2018-04-12T04:11:05.662Z,3.70
2018-04-12T04:13:34.628Z,3.40
2018-04-12T04:16:15.985Z,3.70
2018-04-12T04:18:56.896Z,4.03
2018-04-12T04:21:25.806Z,3.13
2018-04-12T04:23:54.661Z,3.17
2018-04-12T04:26:23.803Z,3.30
2018-04-12T04:28:52.619Z,4.10
2018-04-12T04:31:21.506Z,3.60
2018-04-12T04:33:50.650Z,3.67
2018-04-12T04:36:19.904Z,3.60
2018-04-12T04:38:48.850Z,3.60
2018-04-12T04:41:18.466Z,3.20
2018-04-12T04:43:48.155Z,3.47
2018-04-12T04:46:17.492Z,3.57
2018-04-12T04:48:46.419Z,4.00
2018-04-12T04:51:15.279Z,3.50
2018-04-12T04:53:44.141Z,3.50
2018-04-12T04:56:13.161Z,3.30
2018-04-12T04:58:42.061Z,3.43
2018-04-12T05:01:11.801Z,3.37
2018-04-12T05:03:40.657Z,4.57
2018-04-12T05:06:09.651Z,3.37
2018-04-12T05:08:39.228Z,3.87
2018-04-12T05:11:08.340Z,3.50
2018-04-12T05:13:37.365Z,3.20
2018-04-12T05:16:07.327Z,3.50
2018-04-12T05:18:36.252Z,3.63
2018-04-12T05:21:05.219Z,3.40
2018-04-12T05:23:34.739Z,3.40
2018-04-12T05:26:03.744Z,3.63
2018-04-12T05:28:32.702Z,3.40
2018-04-12T05:31:02.719Z,2.60
2018-04-12T05:33:32.403Z,3.40
2018-04-12T05:36:01.476Z,3.03
2018-04-12T05:38:30.645Z,3.23
2018-04-12T05:40:59.582Z,3.63
2018-04-12T05:43:28.560Z,3.03
2018-04-12T05:45:57.477Z,3.27
2018-04-12T05:48:26.404Z,3.10
2018-04-12T05:50:56.160Z,3.27
2018-04-12T05:53:25.019Z,3.20
2018-04-12T05:55:54.654Z,2.70
2018-04-12T05:58:23.513Z,3.20
2018-04-12T06:00:52.626Z,3.23
2018-04-12T06:03:22.008Z,3.00
2018-04-12T06:05:51.115Z,3.07
2018-04-12T06:08:20.359Z,3.00
2018-04-12T06:10:49.331Z,3.10
2018-04-12T06:13:18.931Z,2.80
2018-04-12T06:15:47.750Z,3.27
2018-04-12T06:18:17.907Z,2.80
2018-04-12T06:20:47.676Z,2.87
2018-04-12T06:23:16.960Z,2.77
2018-04-12T06:25:45.805Z,3.30
2018-04-12T06:28:15.077Z,2.73
2018-04-12T06:30:44.136Z,3.07
2018-04-12T06:33:13.781Z,3.03
2018-04-12T06:35:42.992Z,2.77
2018-04-12T06:38:12.697Z,3.10
2018-04-12T06:40:42.110Z,2.63
2018-04-12T06:43:11.648Z,3.07
2018-04-12T06:45:41.680Z,3.03
2018-04-12T06:48:10.946Z,2.50
2018-04-12T06:50:40.889Z,2.80
2018-04-12T06:53:09.791Z,2.80
2018-04-12T06:55:38.612Z,2.77
2018-04-12T06:58:07.756Z,2.83
2018-04-12T07:00:36.907Z,3.10
2018-04-12T07:03:07.023Z,2.40
2018-04-12T07:05:35.945Z,2.53
2018-04-12T07:08:05.198Z,2.60
2018-04-12T07:10:34.013Z,2.63
2018-04-12T07:13:02.895Z,2.57
2018-04-12T07:15:31.711Z,2.43
2018-04-12T07:18:00.948Z,3.00
2018-04-12T07:20:29.849Z,2.90
2018-04-12T07:22:58.643Z,2.50
2018-04-12T07:25:27.703Z,3.03
2018-04-12T07:27:57.380Z,2.77
2018-04-12T07:30:26.178Z,2.57
2018-04-12T07:32:54.979Z,2.40
2018-04-12T07:35:23.847Z,2.60
2018-04-12T07:37:53.256Z,2.83
2018-04-12T07:40:22.479Z,2.57
2018-04-12T07:42:51.567Z,2.63
2018-04-12T07:45:20.713Z,2.50
2018-04-12T07:47:50.003Z,2.17
2018-04-12T07:50:19.190Z,2.63
2018-04-12T07:52:48.075Z,2.10
2018-04-12T07:55:18.123Z,2.50
2018-04-12T07:57:47.100Z,2.80
2018-04-12T08:00:15.919Z,2.23
2018-04-12T08:02:44.743Z,2.53
2018-04-12T08:05:13.680Z,2.33
2018-04-12T08:07:42.506Z,2.40
2018-04-12T08:10:11.315Z,2.23
2018-04-12T08:12:40.732Z,2.33
2018-04-12T08:15:09.623Z,2.07
2018-04-12T08:17:38.443Z,2.80
2018-04-12T08:20:08.236Z,2.50
2018-04-12T08:22:37.061Z,2.60
2018-04-12T08:25:05.976Z,2.50
2018-04-12T08:27:34.842Z,2.60
2018-04-12T08:30:03.811Z,2.20
2018-04-12T08:32:33.864Z,2.17
2018-04-12T08:35:03.193Z,2.10
2018-04-12T08:37:32.059Z,2.13
2018-04-12T08:40:01.351Z,2.33
2018-04-12T08:42:31.499Z,2.27
2018-04-12T08:45:00.321Z,2.07
2018-04-12T08:47:29.126Z,2.47
2018-04-12T08:49:58.065Z,2.03
2018-04-12T08:52:28.176Z,2.17
2018-04-12T08:54:57.159Z,2.17
2018-04-12T08:57:26.358Z,2.10
2018-04-12T08:59:55.598Z,2.20
2018-04-12T09:02:24.822Z,2.33
2018-04-12T09:04:53.635Z,2.20
2018-04-12T09:07:23.631Z,1.97
2018-04-12T09:09:52.458Z,2.13
2018-04-12T09:12:21.399Z,1.80
2018-04-12T09:14:51.368Z,2.20
2018-04-12T09:17:20.243Z,2.17
2018-04-12T09:19:49.463Z,2.13
2018-04-12T09:22:19.551Z,2.30
2018-04-12T09:24:48.767Z,1.90
2018-04-12T09:27:17.634Z,2.17
2018-04-12T09:29:46.831Z,2.00
2018-04-12T09:32:15.993Z,2.10
2018-04-12T09:34:45.919Z,2.23
2018-04-12T09:37:14.915Z,2.20
2018-04-12T09:39:44.599Z,2.20
2018-04-12T09:42:13.590Z,2.57
2018-04-12T09:44:42.410Z,2.10
2018-04-12T09:47:11.227Z,2.07
2018-04-12T09:49:40.096Z,2.07
2018-04-12T09:52:09.138Z,2.03
2018-04-12T09:54:38.799Z,2.20
2018-04-12T09:57:07.666Z,5.67
2018-04-12T09:59:36.499Z,2.43
2018-04-12T10:02:05.495Z,2.30
2018-04-12T10:04:49.142Z,2.03
2018-04-12T10:07:18.091Z,3.50
2018-04-12T10:09:46.908Z,3.13
2018-04-12T10:12:15.784Z,2.10
2018-04-12T10:14:44.651Z,2.23
2018-04-12T10:17:14.251Z,2.30
2018-04-12T10:19:43.491Z,1.87
2018-04-12T10:22:12.311Z,1.87
2018-04-12T10:24:41.171Z,2.20
2018-04-12T10:27:10.411Z,2.83
2018-04-12T10:29:40.251Z,2.20
2018-04-12T10:32:09.131Z,2.00
2018-04-12T10:34:38.013Z,1.97
2018-04-12T10:37:07.215Z,2.30
2018-04-12T10:39:36.343Z,1.90
2018-04-12T10:42:05.465Z,1.90
2018-04-12T10:44:34.351Z,1.70
2018-04-12T10:47:03.644Z,1.73
2018-04-12T10:49:32.441Z,2.07
2018-04-12T10:52:01.394Z,1.83
2018-04-12T10:54:30.399Z,2.17
2018-04-12T10:56:59.598Z,1.90
2018-04-12T10:59:28.487Z,2.00
2018-04-12T11:01:57.380Z,1.90
2018-04-12T11:04:26.271Z,2.10
2018-04-12T11:06:55.148Z,1.70
2018-04-12T11:09:24.228Z,2.07
2018-04-12T11:11:53.147Z,1.50
2018-04-12T11:14:23.115Z,1.70
2018-04-12T11:16:52.008Z,1.90
2018-04-12T11:19:21.836Z,2.00
2018-04-12T11:21:51.035Z,2.20
2018-04-12T11:24:20.232Z,2.07
2018-04-12T11:26:49.554Z,1.60
2018-04-12T11:29:19.156Z,1.90
2018-04-12T11:31:48.479Z,1.73
2018-04-12T11:34:18.074Z,1.90
2018-04-12T11:36:47.703Z,2.10
2018-04-12T11:39:17.679Z,1.87
2018-04-12T11:41:47.111Z,1.90
2018-04-12T11:44:15.934Z,1.83
2018-04-12T11:46:44.784Z,2.00
2018-04-12T11:49:14.480Z,2.33
2018-04-12T11:51:43.572Z,1.90
2018-04-12T11:54:13.720Z,2.00
2018-04-12T11:56:42.565Z,2.13
2018-04-12T11:59:11.517Z,1.70
2018-04-12T12:01:40.375Z,1.93
2018-04-12T12:04:09.209Z,2.00
2018-04-12T12:06:38.080Z,2.40
2018-04-12T12:09:07.291Z,2.17
2018-04-12T12:11:36.098Z,2.37
2018-04-12T12:14:05.022Z,1.50
2018-04-12T12:16:33.848Z,1.90
2018-04-12T12:19:03.627Z,1.80
2018-04-12T12:21:33.211Z,2.47
2018-04-12T12:24:02.030Z,1.80
2018-04-12T12:26:31.671Z,1.90
2018-04-12T12:29:00.564Z,1.90
2018-04-12T12:31:29.447Z,2.00
2018-04-12T12:33:58.701Z,2.30
2018-04-12T12:36:27.893Z,1.90
2018-04-12T12:38:57.223Z,1.90
2018-04-12T12:41:26.117Z,1.73
2018-04-12T12:43:54.939Z,1.80
2018-04-12T12:46:23.749Z,2.10
2018-04-12T12:48:53.799Z,1.80
2018-04-12T12:51:22.628Z,2.20
2018-04-12T12:53:52.249Z,1.90
2018-04-12T12:56:21.290Z,1.90
2018-04-12T12:58:50.097Z,2.00
2018-04-12T13:01:19.018Z,2.00
2018-04-12T13:03:48.247Z,1.90
2018-04-12T13:06:17.067Z,1.77
2018-04-12T13:08:45.929Z,1.90
2018-04-12T13:11:15.184Z,1.70
2018-04-12T13:13:43.975Z,1.57
2018-04-12T13:16:13.900Z,1.77
2018-04-12T13:18:43.531Z,1.80
2018-04-12T13:21:12.756Z,1.80
2018-04-12T13:23:42.405Z,1.57
2018-04-12T13:26:11.267Z,1.70
2018-04-12T13:28:41.086Z,1.93
2018-04-12T13:31:10.400Z,1.80
2018-04-12T13:33:39.196Z,1.70
2018-04-12T13:36:08.439Z,1.97
2018-04-12T13:38:37.626Z,2.10
2018-04-12T13:41:06.437Z,1.70
2018-04-12T13:43:35.610Z,1.93
2018-04-12T13:46:04.471Z,1.87
2018-04-12T13:48:33.842Z,1.80
2018-04-12T13:51:03.107Z,1.93
2018-04-12T13:53:31.992Z,2.07
2018-04-12T13:56:00.799Z,1.90
2018-04-12T13:58:29.653Z,1.90
2018-04-12T14:00:58.900Z,1.77
2018-04-12T14:03:27.759Z,1.90
2018-04-12T14:05:56.846Z,1.80
2018-04-12T14:08:25.647Z,2.00
2018-04-12T14:10:55.300Z,2.00
2018-04-12T14:13:24.133Z,2.07
2018-04-12T14:15:53.415Z,1.87
2018-04-12T14:18:22.206Z,1.70
2018-04-12T14:20:51.025Z,1.93
2018-04-12T14:23:19.920Z,2.00
2018-04-12T14:25:49.168Z,2.13
2018-04-12T14:28:17.969Z,1.67
2018-04-12T14:30:46.835Z,2.10
2018-04-12T14:33:15.683Z,1.73
2018-04-12T14:35:44.580Z,1.80
2018-04-12T14:38:13.675Z,1.93
2018-04-12T14:40:42.468Z,1.70
2018-04-12T14:43:11.334Z,2.00
2018-04-12T14:45:40.331Z,1.90
2018-04-12T14:48:09.394Z,2.30
2018-04-12T14:50:38.971Z,2.43
2018-04-12T14:53:07.874Z,1.70
2018-04-12T14:55:37.018Z,1.80
2018-04-12T14:58:06.310Z,1.70
2018-04-12T15:00:35.986Z,1.77
2018-04-12T15:03:05.314Z,2.20
2018-04-12T15:05:34.132Z,1.73
2018-04-12T15:08:02.942Z,1.63
2018-04-12T15:10:31.823Z,1.60
2018-04-12T15:13:00.686Z,2.40
2018-04-12T15:15:30.372Z,1.73
2018-04-12T15:17:59.209Z,1.90
2018-04-12T15:20:28.869Z,1.63
2018-04-12T15:22:58.130Z,2.00
2018-04-12T15:25:27.031Z,1.90
2018-04-12T15:27:55.902Z,1.97
2018-04-12T15:30:25.220Z,1.83
2018-04-12T15:32:54.871Z,1.80
2018-04-12T15:35:23.713Z,1.80
2018-04-12T15:37:52.752Z,1.90
2018-04-12T15:40:21.617Z,1.57
2018-04-12T15:42:50.886Z,1.57
2018-04-12T15:45:19.805Z,2.17
2018-04-12T15:47:48.757Z,1.80
2018-04-12T15:50:17.824Z,1.90
2018-04-12T15:52:46.802Z,1.80
2018-04-12T15:55:16.570Z,2.10
2018-04-12T15:57:46.195Z,1.97
2018-04-12T16:00:15.528Z,1.83
2018-04-12T16:02:44.434Z,2.10
2018-04-12T16:05:16.304Z,1.60
2018-04-12T16:07:45.879Z,1.80
2018-04-12T16:10:16.826Z,1.80
2018-04-12T16:12:48.311Z,2.07
2018-04-12T16:15:17.212Z,1.90
2018-04-12T16:17:47.085Z,1.90
2018-04-12T16:20:16.831Z,1.70
2018-04-12T16:22:46.400Z,2.20
2018-04-12T16:25:16.292Z,2.13
2018-04-12T16:27:45.915Z,1.57
2018-04-12T16:30:14.788Z,1.90
2018-04-12T16:32:43.679Z,1.80
2018-04-12T16:35:14.336Z,2.20
2018-04-12T16:37:43.208Z,1.83
2018-04-12T16:40:12.019Z,2.07
2018-04-12T16:42:40.865Z,1.80
2018-04-12T16:45:09.966Z,2.00
2018-04-12T16:47:38.803Z,1.77
2018-04-12T16:50:07.743Z,2.10
2018-04-12T16:52:36.788Z,1.80
2018-04-12T16:55:05.604Z,1.90
2018-04-12T16:57:34.439Z,1.87
2018-04-12T17:00:03.478Z,1.70
2018-04-12T17:02:32.429Z,1.80
2018-04-12T17:05:01.239Z,2.03
2018-04-12T17:07:30.059Z,1.90
2018-04-12T17:09:58.939Z,2.00
2018-04-12T17:12:27.808Z,2.10
2018-04-12T17:14:56.801Z,2.07
2018-04-12T17:17:25.692Z,2.00
2018-04-12T17:19:54.567Z,2.03
2018-04-12T17:22:23.652Z,1.70
2018-04-12T17:24:52.523Z,2.20
2018-04-12T17:27:22.140Z,1.90
2018-04-12T17:29:51.801Z,2.10
2018-04-12T17:32:21.254Z,2.00
2018-04-12T17:34:51.500Z,2.00
2018-04-12T17:37:20.892Z,2.13
2018-04-12T17:39:50.873Z,2.27
2018-04-12T17:42:19.683Z,1.90
2018-04-12T17:44:48.542Z,2.00
2018-04-12T17:47:17.451Z,2.00
2018-04-12T17:49:46.367Z,2.20
2018-04-12T17:52:15.237Z,1.70
2018-04-12T17:54:44.134Z,1.93
2018-04-12T17:57:13.284Z,2.20
2018-04-12T17:59:42.909Z,2.03
2018-04-12T18:02:12.144Z,2.00
2018-04-12T18:04:41.476Z,2.20
2018-04-12T18:07:10.291Z,2.10
2018-04-12T18:09:39.583Z,2.23
2018-04-12T18:12:09.265Z,2.10
2018-04-12T18:14:38.108Z,2.30
2018-04-12T18:17:07.766Z,2.47
2018-04-12T18:19:36.700Z,2.17
2018-04-12T18:22:06.431Z,2.23
2018-04-12T18:24:35.535Z,2.10
2018-04-12T18:27:05.239Z,2.17
2018-04-12T18:32:09.220Z,2.10
2018-04-12T18:34:38.161Z,2.00
2018-04-12T18:37:07.964Z,2.30
2018-04-12T18:39:36.867Z,2.10
2018-04-12T18:42:05.721Z,2.37
2018-04-12T18:44:34.976Z,2.40
2018-04-12T18:47:04.482Z,2.00
2018-04-12T18:49:33.688Z,2.30
2018-04-12T18:52:04.974Z,2.20
2018-04-12T18:54:34.015Z,2.13
2018-04-12T18:57:02.999Z,2.13
2018-04-12T18:59:31.888Z,2.30
2018-04-12T19:02:01.168Z,2.03
2018-04-12T19:04:30.072Z,1.87
2018-04-12T19:06:58.906Z,2.37
2018-04-12T19:09:28.109Z,2.07
2018-04-12T19:11:57.435Z,2.20
2018-04-12T19:14:27.239Z,2.20
2018-04-12T19:16:56.135Z,2.20
2018-04-12T19:19:25.752Z,2.17
2018-04-12T19:21:55.159Z,2.03
2018-04-12T19:24:24.284Z,2.23
2018-04-12T19:26:53.472Z,2.20
2018-04-12T19:29:23.924Z,2.43
2018-04-12T19:31:53.615Z,2.30
2018-04-12T19:34:23.738Z,2.40
2018-04-12T19:36:52.749Z,2.23
2018-04-12T19:39:22.686Z,2.50
2018-04-12T19:41:52.344Z,2.33
2018-04-12T19:44:21.327Z,2.67
2018-04-12T19:46:50.170Z,2.30
2018-04-12T19:49:19.478Z,2.50
2018-04-12T19:51:48.340Z,2.50
2018-04-12T19:54:17.274Z,2.47
2018-04-12T19:56:46.085Z,2.33
2018-04-12T19:59:15.111Z,1.90
2018-04-12T20:01:45.178Z,2.00
2018-04-12T20:04:15.322Z,2.60
2018-04-12T20:06:44.272Z,2.40
2018-04-12T20:09:13.204Z,2.50
2018-04-12T20:11:42.049Z,2.23
2018-04-12T20:14:11.274Z,2.63
2018-04-12T20:16:40.882Z,2.23
2018-04-12T20:19:10.513Z,2.10
2018-04-12T20:21:39.471Z,2.23
2018-04-12T20:24:09.135Z,2.00
2018-04-12T20:26:38.028Z,2.27
2018-04-12T20:29:06.956Z,2.40
2018-04-12T20:31:36.248Z,1.80
2018-04-12T20:34:05.300Z,2.47
2018-04-12T20:36:34.230Z,2.23
2018-04-12T20:39:03.239Z,2.23
2018-04-12T20:41:32.347Z,2.20
2018-04-12T20:44:01.582Z,1.90
2018-04-12T20:46:30.997Z,2.20
2018-04-12T20:49:00.201Z,2.27
2018-04-12T20:51:30.368Z,2.20
2018-04-12T20:53:59.222Z,2.10
2018-04-12T20:56:28.731Z,2.20
2018-04-12T20:58:58.329Z,2.20
2018-04-12T21:01:28.020Z,2.03
2018-04-12T21:03:57.276Z,2.00
2018-04-12T21:06:26.925Z,2.40
2018-04-12T21:08:55.866Z,2.50
2018-04-12T21:11:24.769Z,2.87
2018-04-12T21:13:54.328Z,2.30
2018-04-12T21:16:23.520Z,2.10
2018-04-12T21:18:53.277Z,2.50
2018-04-12T21:21:24.955Z,2.60
2018-04-12T21:23:53.850Z,2.60
2018-04-12T21:26:22.727Z,2.20
2018-04-12T21:28:52.662Z,2.33
2018-04-12T21:31:23.688Z,2.47
2018-04-12T21:33:52.835Z,2.40
2018-04-12T21:36:22.277Z,2.33
2018-04-12T21:38:52.656Z,2.57
2018-04-12T21:41:21.891Z,2.40
2018-04-12T21:43:50.732Z,2.57
2018-04-12T21:46:20.527Z,2.13
2018-04-12T21:48:49.354Z,2.70
2018-04-12T21:51:18.672Z,2.23
2018-04-12T21:53:48.601Z,2.40
2018-04-12T21:56:17.423Z,2.40
2018-04-12T21:58:46.255Z,2.43
2018-04-12T22:01:15.341Z,2.67
2018-04-12T22:06:16.824Z,2.27
2018-04-12T22:08:45.639Z,2.50
2018-04-12T22:11:14.728Z,2.77
2018-04-12T22:13:43.627Z,2.00
2018-04-12T22:16:12.588Z,3.03
2018-04-12T22:18:41.535Z,2.33
2018-04-12T22:21:10.961Z,2.30
2018-04-12T22:23:40.167Z,2.60
2018-04-12T22:26:09.363Z,2.50
2018-04-12T22:28:38.256Z,2.00
2018-04-12T22:31:08.719Z,2.37
2018-04-12T22:33:38.909Z,2.27
2018-04-12T22:36:08.351Z,2.80
2018-04-12T22:38:38.026Z,2.40
2018-04-12T22:41:06.885Z,2.50
2018-04-12T22:43:36.535Z,2.33
2018-04-12T22:46:05.417Z,2.20
2018-04-12T22:48:34.397Z,2.30
2018-04-12T22:51:03.271Z,2.43
2018-04-12T22:53:33.179Z,2.17
2018-04-12T22:56:03.112Z,2.40
2018-04-12T22:58:32.333Z,2.47
2018-04-12T23:01:01.484Z,2.30
2018-04-12T23:03:30.774Z,2.50
2018-04-12T23:06:00.062Z,2.50
2018-04-12T23:08:28.873Z,2.40
2018-04-12T23:10:57.717Z,2.47
2018-04-12T23:13:26.626Z,2.50
2018-04-12T23:15:55.548Z,2.67
2018-04-12T23:18:25.191Z,2.40
2018-04-12T23:20:54.988Z,2.70
2018-04-12T23:23:24.078Z,2.30
2018-04-12T23:25:52.964Z,2.70
2018-04-12T23:28:22.328Z,2.43
2018-04-12T23:30:51.223Z,2.20
2018-04-12T23:33:21.258Z,2.37
2018-04-12T23:35:50.566Z,2.60
2018-04-12T23:38:19.898Z,2.60
2018-04-12T23:40:48.733Z,2.27
2018-04-12T23:43:18.014Z,2.43
2018-04-12T23:45:46.888Z,2.87
2018-04-12T23:48:15.721Z,2.43
2018-04-12T23:50:45.668Z,2.70
2018-04-12T23:53:14.505Z,2.57
2018-04-12T23:55:43.834Z,2.77
2018-04-12T23:58:13.324Z,2.50
